Time;durP1;ratioP1;P1;durP2;ratioP2;P2;SDS_P1;SDS_P2;PMS_P1;PMS_P2;Temp;Humidity;BMP_temperature;BMP_pressure;BME280_temperature;BME280_humidity;BME280_pressure;Samples;Min_cycle;Max_cycle;Signal;HPM_P1;HPM_P2
2023/07/02 00:02:57;;;;;;;2.65;1.40;;;;;;;-145.68;100.00;72512.50;10579962;28;20748;-74
2023/07/02 00:07:57;;;;;;;1.65;1.40;;;;;;;-145.68;100.00;72512.50;10580287;28;20684;-74
2023/07/02 00:12:57;;;;;;;1.80;1.52;;;;;;;-145.68;100.00;72518.50;10580478;28;20278;-75
2023/07/02 00:17:58;;;;;;;2.22;1.60;;;;;;;-145.68;100.00;72506.50;10580630;28;20203;-74
2023/07/02 00:23:00;;;;;;;1.13;1.10;;;;;;;-145.68;100.00;72504.53;10579899;28;20209;-74
2023/07/02 00:28:00;;;;;;;2.38;1.30;;;;;;;-145.68;100.00;72502.53;10580150;28;20200;-74
2023/07/02 00:33:01;;;;;;;1.63;1.20;;;;;;;-145.68;100.00;72500.53;10561095;28;20229;-74
2023/07/02 00:38:01;;;;;;;1.55;1.15;;;;;;;-145.68;100.00;72506.50;10579689;28;20208;-74
2023/07/02 00:43:01;;;;;;;1.42;1.30;;;;;;;-145.68;100.00;72520.50;10579280;28;20214;-74
2023/07/02 00:48:02;;;;;;;1.20;1.10;;;;;;;-145.68;100.00;72520.50;10561250;28;20185;-74
2023/07/02 00:53:02;;;;;;;1.63;1.30;;;;;;;-145.68;100.00;72506.50;10560458;28;20182;-74
2023/07/02 00:58:02;;;;;;;1.25;1.15;;;;;;;-145.68;100.00;72524.50;10578777;28;20182;-75
2023/07/02 01:03:03;;;;;;;0.98;0.95;;;;;;;-145.68;100.00;72520.50;10577826;28;20217;-74
2023/07/02 01:08:05;;;;;;;1.20;1.10;;;;;;;-145.68;100.00;72510.50;10559220;28;20247;-74
2023/07/02 01:13:09;;;;;;;1.88;1.40;;;;;;;-145.68;100.00;72512.50;10578133;28;20178;-74
2023/07/02 01:18:12;;;;;;;1.50;1.40;;;;;;;-145.68;100.00;72508.50;10559638;28;20185;-75
2023/07/02 01:23:13;;;;;;;2.10;1.50;;;;;;;-145.68;100.00;72530.50;10559499;28;20669;-74
2023/07/02 01:28:13;;;;;;;4.35;1.38;;;;;;;-145.68;100.00;72558.47;10559382;28;20190;-75
2023/07/02 01:33:14;;;;;;;1.33;1.20;;;;;;;-145.68;100.00;72544.50;10558536;28;20244;-74
2023/07/02 01:38:14;;;;;;;1.67;1.30;;;;;;;-145.68;100.00;72532.50;10559374;28;20617;-74
2023/07/02 01:43:15;;;;;;;1.92;1.40;;;;;;;-145.68;100.00;72530.50;10576567;28;20553;-74
2023/07/02 01:48:15;;;;;;;1.40;1.30;;;;;;;-145.68;100.00;72544.50;10558722;28;20591;-74
2023/07/02 01:53:15;;;;;;;1.63;1.52;;;;;;;-145.68;100.00;72570.47;10558361;28;20185;-75
2023/07/02 01:58:16;;;;;;;1.77;1.60;;;;;;;-145.68;100.00;72608.44;10558606;28;20194;-74
2023/07/02 02:03:16;;;;;;;1.52;1.40;;;;;;;-145.68;100.00;72624.41;10557890;28;20214;-73
2023/07/02 02:08:16;;;;;;;1.67;1.58;;;;;;;-145.68;100.00;72664.38;10576496;28;20178;-73
2023/07/02 02:13:17;;;;;;;2.00;1.80;;;;;;;-145.68;100.00;72690.38;10576187;28;20650;-73
2023/07/02 02:18:17;;;;;;;2.55;2.00;;;;;;;-145.68;100.00;72694.38;10557510;28;20717;-73
2023/07/02 02:23:18;;;;;;;2.22;2.13;;;;;;;-145.68;100.00;72698.34;10575934;28;20546;-72
2023/07/02 02:28:18;;;;;;;2.17;2.00;;;;;;;-145.68;100.00;72700.34;10586874;28;20854;-73
2023/07/02 02:33:18;;;;;;;2.10;2.00;;;;;;;-145.68;100.00;72702.34;10571301;28;20286;-72
2023/07/02 02:38:19;;;;;;;2.67;2.20;;;;;;;-145.68;100.00;72700.34;10589816;28;20334;-73
2023/07/02 02:43:20;;;;;;;2.75;2.40;;;;;;;-145.68;100.00;72700.34;10571283;28;20257;-73
2023/07/02 02:48:24;;;;;;;4.38;2.50;;;;;;;-145.68;100.00;72702.34;10571155;28;20209;-73
2023/07/02 02:53:24;;;;;;;2.50;2.30;;;;;;;-145.68;100.00;72688.38;10571106;28;20190;-73
2023/07/02 02:58:27;;;;;;;2.42;2.22;;;;;;;-145.68;100.00;72696.34;10571258;28;20190;-73
2023/07/02 03:03:28;;;;;;;2.80;2.20;;;;;;;-145.68;100.00;72692.38;10573764;28;20230;-73
2023/07/02 03:08:28;;;;;;;2.90;2.70;;;;;;;-145.68;100.00;72680.38;10543340;28;20860;-73
2023/07/02 03:13:28;;;;;;;2.30;1.98;;;;;;;-145.68;100.00;72666.38;10543434;28;20277;-73
2023/07/02 03:18:29;;;;;;;2.63;2.42;;;;;;;-145.68;100.00;72660.38;10542761;28;20182;-73
2023/07/02 03:23:29;;;;;;;2.42;2.22;;;;;;;-145.68;100.00;72654.41;10542056;28;20301;-73
2023/07/02 03:28:30;;;;;;;2.58;2.38;;;;;;;-145.68;100.00;72662.38;10541801;28;20584;-73
2023/07/02 03:33:32;;;;;;;3.67;2.63;;;;;;;-145.68;100.00;72668.38;10541519;28;20570;-73
2023/07/02 03:38:32;;;;;;;3.35;2.53;;;;;;;-145.68;100.00;72658.38;10537851;28;20581;-73
2023/07/02 03:43:33;;;;;;;2.70;2.50;;;;;;;-145.68;100.00;72656.41;10535339;28;20214;-73
2023/07/02 03:48:33;;;;;;;2.50;2.30;;;;;;;-145.68;100.00;72652.41;10535989;28;20218;-73
2023/07/02 03:53:34;;;;;;;4.03;2.35;;;;;;;-145.68;100.00;72662.38;10535446;28;20214;-73
2023/07/02 03:58:35;;;;;;;2.80;2.60;;;;;;;-145.68;100.00;72664.38;10535437;28;20236;-74
2023/07/02 04:03:35;;;;;;;4.50;2.30;;;;;;;-145.68;100.00;72652.41;10537156;28;20700;-74
2023/07/02 04:08:36;;;;;;;3.92;2.30;;;;;;;-145.68;100.00;72652.41;10538589;28;20588;-73
2023/07/02 04:13:36;;;;;;;3.95;2.40;;;;;;;-145.68;100.00;72656.41;10538397;28;20546;-74
2023/07/02 04:18:37;;;;;;;4.57;2.80;;;;;;;-145.68;100.00;72656.41;10537967;28;20237;-73
2023/07/02 04:23:37;;;;;;;2.97;2.50;;;;;;;-145.68;100.00;72670.38;10537520;28;20347;-73
2023/07/02 04:28:37;;;;;;;4.38;3.22;;;;;;;-145.68;100.00;72700.34;10538141;28;20191;-72
2023/07/02 04:33:39;;;;;;;4.07;3.47;;;;;;;-145.68;100.00;72724.34;10537316;28;20255;-72
2023/07/02 04:38:39;;;;;;;3.92;3.63;;;;;;;-145.68;100.00;72736.31;10537629;28;20217;-72
2023/07/02 04:43:40;;;;;;;4.13;3.50;;;;;;;-145.68;100.00;72790.28;10537263;28;20575;-72
2023/07/02 04:48:40;;;;;;;3.33;3.03;;;;;;;-145.68;100.00;72806.28;10536514;28;20206;-72
2023/07/02 04:53:40;;;;;;;5.40;4.00;;;;;;;-145.68;100.00;72828.25;10537222;28;20300;-72
2023/07/02 04:58:41;;;;;;;5.57;4.38;;;;;;;-145.68;100.00;72858.22;10536434;28;20240;-73
2023/07/02 05:03:41;;;;;;;4.72;4.18;;;;;;;-145.68;100.00;72848.25;10518288;28;20325;-72
2023/07/02 05:08:41;;;;;;;3.97;3.67;;;;;;;-145.68;100.00;72876.22;10536518;28;20186;-73
2023/07/02 05:13:42;;;;;;;4.53;4.13;;;;;;;-145.68;100.00;72890.22;10535889;28;20538;-73
2023/07/02 05:18:42;;;;;;;5.45;4.25;;;;;;;-145.68;100.00;72908.19;10536034;28;20549;-73
2023/07/02 05:23:42;;;;;;;4.60;4.20;;;;;;;-145.68;100.00;72900.19;10535426;28;20562;-73
2023/07/02 05:28:44;;;;;;;7.07;4.10;;;;;;;-145.68;100.00;72886.22;10535405;28;20195;-73
2023/07/02 05:33:44;;;;;;;5.50;4.30;;;;;;;-145.68;100.00;72900.19;10534936;28;20649;-73
2023/07/02 05:38:44;;;;;;;5.20;4.50;;;;;;;-145.68;100.00;72908.19;10534769;28;20218;-73
2023/07/02 05:43:45;;;;;;;4.25;3.88;;;;;;;-145.68;100.00;72910.19;10539252;28;20217;-72
2023/07/02 05:48:45;;;;;;;4.30;4.00;;;;;;;-145.68;100.00;72906.19;10574884;28;20190;-72
2023/07/02 05:53:46;;;;;;;4.43;4.03;;;;;;;-145.68;100.00;72914.19;10575602;28;20316;-72
2023/07/02 05:58:46;;;;;;;5.65;4.10;;;;;;;-145.68;100.00;72902.19;10576202;28;20201;-72
2023/07/02 06:03:49;;;;;;;6.65;3.90;;;;;;;-145.68;100.00;72878.22;10575681;28;20266;-73
2023/07/02 06:08:50;;;;;;;4.05;3.65;;;;;;;-145.68;100.00;72872.22;10575972;28;20182;-73
2023/07/02 06:13:50;;;;;;;7.55;3.85;;;;;;;-145.68;100.00;72906.19;10540863;28;20182;-75
2023/07/02 06:18:51;;;;;;;4.50;4.10;;;;;;;-145.68;100.00;72890.22;10557773;28;20193;-75
2023/07/02 06:23:51;;;;;;;5.72;3.97;;;;;;;-145.68;100.00;72894.22;10575950;28;20221;-76
2023/07/02 06:28:51;;;;;;;6.47;4.90;;;;;;;-145.68;100.00;72920.19;10557741;28;20200;-76
2023/07/02 06:33:52;;;;;;;5.88;4.68;;;;;;;-145.68;100.00;72900.19;10575692;28;20237;-76
2023/07/02 06:38:52;;;;;;;5.90;5.35;;;;;;;-145.68;100.00;72886.22;10575286;28;20205;-76
2023/07/02 06:43:52;;;;;;;6.00;5.50;;;;;;;-145.68;100.00;72884.22;10575308;28;20229;-76
2023/07/02 06:48:53;;;;;;;5.60;5.00;;;;;;;-145.68;100.00;72872.22;10574916;28;20186;-77
2023/07/02 06:53:53;;;;;;;4.85;4.45;;;;;;;-145.68;100.00;72834.25;10575246;28;20193;-75
2023/07/02 06:58:54;;;;;;;6.03;4.30;;;;;;;-145.68;100.00;72772.31;10575196;28;20693;-76
2023/07/02 07:03:54;;;;;;;5.07;4.57;;;;;;;-145.68;100.00;72744.31;10575019;28;20279;-77
2023/07/02 07:08:54;;;;;;;5.28;4.78;;;;;;;-145.68;100.00;72780.28;10574738;28;20190;-77
2023/07/02 07:13:55;;;;;;;5.82;5.22;;;;;;;-145.68;100.00;72776.28;10580280;28;20278;-77
2023/07/02 07:18:55;;;;;;;5.85;5.35;;;;;;;-145.68;100.00;72732.34;10582595;28;20185;-75
2023/07/02 07:23:56;;;;;;;9.05;7.03;;;;;;;-145.68;100.00;72764.31;10582345;28;20700;-74
2023/07/02 07:28:57;;;;;;;7.03;6.38;;;;;;;-145.68;100.00;72742.31;10582141;28;20190;-75
2023/07/02 07:33:58;;;;;;;5.90;5.30;;;;;;;-145.68;100.00;72686.38;10581918;28;20230;-75
2023/07/02 07:38:58;;;;;;;9.55;5.22;;;;;;;-145.68;100.00;72636.41;10581678;28;20209;-76
2023/07/02 07:43:59;;;;;;;4.88;4.40;;;;;;;-145.68;94.71;72572.47;10581418;28;20221;-75
2023/07/02 07:49:00;;;;;;;7.22;5.60;;;;;;;-145.68;94.29;72636.41;10581739;28;20354;-75
2023/07/02 07:54:00;;;;;;;5.97;4.47;;;;;;;-145.68;91.49;72624.41;10581397;28;20323;-75
2023/07/02 07:59:00;;;;;;;5.25;4.78;;;;;;;-145.68;87.12;72628.41;10581381;28;20186;-75
2023/07/02 08:04:01;;;;;;;4.70;4.07;;;;;;;-145.68;85.89;72516.50;10580875;28;20343;-75
2023/07/02 08:09:02;;;;;;;4.10;3.70;;;;;;;-145.68;77.44;72446.56;10580768;28;20190;-76
2023/07/02 08:14:03;;;;;;;4.05;3.55;;;;;;;-145.68;73.60;72474.53;10581020;28;20190;-75
2023/07/02 08:19:03;;;;;;;3.45;3.00;;;;;;;-145.68;69.80;72384.63;10580100;28;20645;-76
2023/07/02 08:24:04;;;;;;;2.72;2.40;;;;;;;-145.68;69.11;72294.72;10579726;28;20343;-76
2023/07/02 08:29:04;;;;;;;3.40;3.10;;;;;;;-145.68;67.77;72442.56;10580167;28;20194;-76
2023/07/02 08:34:05;;;;;;;5.07;2.60;;;;;;;-145.68;67.17;72540.50;10579644;28;20240;-76
2023/07/02 08:39:05;;;;;;;6.82;2.30;;;;;;;-145.68;63.60;72312.69;10579606;28;20487;-76
2023/07/02 08:44:05;;;;;;;2.20;2.00;;;;;;;-145.68;58.95;72210.78;10579147;28;20229;-76
2023/07/02 08:49:06;;;;;;;4.68;2.13;;;;;;;-145.68;58.42;72230.75;10579321;28;20194;-76
2023/07/02 08:54:06;;;;;;;3.20;2.20;;;;;;;-145.68;56.43;72274.72;10579110;28;20608;-76
2023/07/02 08:59:07;;;;;;;2.60;2.10;;;;;;;-145.68;56.55;72312.69;10578963;28;20250;-76
2023/07/02 09:04:15;;;;;;;2.28;2.00;;;;;;;-145.68;56.29;72250.75;10578502;28;20217;-76
2023/07/02 09:09:15;;;;;;;2.22;2.03;;;;;;;-145.68;58.67;72348.66;10560243;28;20202;-76
2023/07/02 09:14:29;;;;;;;4.28;1.83;;;;;;;-145.68;52.45;72054.94;10578377;28;20186;-76
2023/07/02 09:19:30;;;;;;;2.03;1.75;;;;;;;-145.68;50.13;72148.84;10577919;28;20197;-76
2023/07/02 09:24:31;;;;;;;1.45;1.35;;;;;;;-145.68;47.85;71805.19;10577996;28;20696;-74
2023/07/02 09:29:33;;;;;;;2.78;1.30;;;;;;;-145.68;43.06;71875.09;10577715;28;20193;-74
2023/07/02 09:34:35;;;;;;;2.05;1.45;;;;;;;-145.68;43.38;71781.19;10576319;28;20252;-75
2023/07/02 09:39:36;;;;;;;3.38;1.65;;;;;;;-145.68;42.19;71929.06;10576903;28;20300;-75
2023/07/02 09:44:36;;;;;;;1.55;1.45;;;;;;;-145.68;42.87;71937.03;10577158;28;20253;-75
2023/07/02 09:50:02;;;;;;;1.60;1.48;;;;;;;-145.68;39.61;71737.25;10558423;28;20186;-74
2023/07/02 09:55:04;;;;;;;1.80;1.45;;;;;;;-145.68;39.46;71713.28;10577115;28;20190;-75
2023/07/02 10:00:05;;;;;;;1.98;1.40;;;;;;;-145.68;40.31;71929.06;10576331;28;20217;-76
2023/07/02 10:05:06;;;;;;;3.03;1.65;;;;;;;-145.68;42.12;72014.97;10557455;28;20646;-75
2023/07/02 10:10:07;;;;;;;1.70;1.23;;;;;;;-145.68;39.67;71725.25;10576190;28;20182;-75
2023/07/02 10:15:08;;;;;;;3.50;1.20;;;;;;;-145.68;39.22;71679.31;10558597;28;20208;-75
2023/07/02 10:20:11;;;;;;;1.63;1.30;;;;;;;-145.68;40.08;71793.19;10576150;28;20571;-75
2023/07/02 10:25:11;;;;;;;1.20;1.10;;;;;;;-145.68;38.93;71863.13;10558091;28;20186;-75
2023/07/02 10:30:11;;;;;;;1.95;1.35;;;;;;;-145.68;39.95;71833.16;10576105;28;20634;-75
2023/07/02 10:35:16;;;;;;;1.25;1.15;;;;;;;-145.68;38.05;71689.31;10575739;28;20627;-75
2023/07/02 10:40:16;;;;;;;1.48;1.27;;;;;;;-145.68;37.15;71521.47;10575938;28;20225;-75
2023/07/02 10:45:17;;;;;;;3.10;1.30;;;;;;;-145.68;38.36;71583.41;10575464;28;21117;-75
2023/07/02 10:50:19;;;;;;;5.47;2.28;;;;;;;-145.68;38.68;71677.31;10583726;28;20181;-76
2023/07/02 10:55:20;;;;;;;2.78;1.40;;;;;;;-145.68;40.02;71725.25;10566245;28;20186;-75
2023/07/02 11:00:21;;;;;;;2.20;1.40;;;;;;;-145.68;40.30;71845.13;10548438;28;20220;-75
2023/07/02 11:05:21;;;;;;;1.23;1.13;;;;;;;-145.68;39.64;71677.31;10584179;28;20555;-75
2023/07/02 11:10:23;;;;;;;2.40;1.42;;;;;;;-145.68;38.07;71549.44;10583565;28;20186;-75
2023/07/02 11:15:23;;;;;;;1.60;1.50;;;;;;;-145.68;39.31;71789.19;10583676;28;20182;-75
2023/07/02 11:20:33;;;;;;;1.42;1.33;;;;;;;-145.68;40.96;71881.09;10583138;28;20220;-75
2023/07/02 11:25:33;;;;;;;1.55;1.40;;;;;;;-145.68;41.13;71919.06;10583491;28;20198;-75
2023/07/02 11:30:44;;;;;;;3.10;1.30;;;;;;;-145.68;42.07;71917.06;10564404;28;20229;-75
2023/07/02 11:35:45;;;;;;;1.40;1.30;;;;;;;-145.68;42.54;72006.97;10582950;28;20228;-75
2023/07/02 11:40:48;;;;;;;4.78;1.58;;;;;;;-145.68;42.53;71963.03;10582047;28;20781;-75
2023/07/02 11:45:48;;;;;;;2.10;1.40;;;;;;;-145.68;44.69;72094.88;10581947;28;20186;-75
2023/07/02 11:50:49;;;;;;;4.82;1.70;;;;;;;-145.68;44.02;71973.00;10563693;28;20202;-74
2023/07/02 11:55:49;;;;;;;1.55;1.40;;;;;;;-145.68;44.77;72030.94;10581898;28;20190;-75
2023/07/02 12:00:49;;;;;;;1.70;1.50;;;;;;;-145.68;44.73;72100.88;10580531;28;20286;-75
2023/07/02 12:05:50;;;;;;;6.07;1.48;;;;;;;-145.68;44.52;72042.94;10563395;28;20190;-75
2023/07/02 12:10:51;;;;;;;3.10;1.52;;;;;;;-145.68;45.00;72108.88;10581097;28;20186;-75
2023/07/02 12:15:51;;;;;;;6.35;1.90;;;;;;;-145.68;46.89;72168.81;10581072;28;20708;-75
2023/07/02 12:20:52;;;;;;;3.80;1.95;;;;;;;-145.68;47.55;72232.75;10580589;28;20217;-75
2023/07/02 12:25:52;;;;;;;3.65;1.73;;;;;;;-145.68;47.77;72096.88;10580596;28;20604;-75
2023/07/02 12:30:52;;;;;;;5.45;1.60;;;;;;;-145.68;47.84;72044.94;10580086;28;20178;-75
2023/07/02 12:35:53;;;;;;;3.05;2.42;;;;;;;-145.68;49.91;72242.75;10580495;28;20202;-75
2023/07/02 12:40:54;;;;;;;5.90;2.10;;;;;;;-145.68;49.68;72128.84;10579462;28;20229;-75
2023/07/02 12:45:54;;;;;;;3.00;1.90;;;;;;;-145.68;47.31;72110.88;10579943;28;20277;-74
2023/07/02 12:50:58;;;;;;;4.47;2.30;;;;;;;-145.68;45.76;72006.97;10579253;28;20339;-75
2023/07/02 12:55:59;;;;;;;3.20;2.20;;;;;;;-145.68;45.56;71963.03;10574712;28;20653;-74
2023/07/02 13:00:59;;;;;;;2.00;1.80;;;;;;;-145.68;43.39;72068.91;10575127;28;20276;-75
2023/07/02 13:05:59;;;;;;;6.45;2.20;;;;;;;-145.68;44.84;72052.94;10575456;28;20193;-75
2023/07/02 13:11:00;;;;;;;3.28;2.28;;;;;;;-145.68;42.53;71939.03;10574683;28;20217;-75
2023/07/02 13:16:00;;;;;;;6.97;1.95;;;;;;;-145.68;42.66;71967.00;10574462;28;20197;-75
2023/07/02 13:21:01;;;;;;;4.00;2.20;;;;;;;-145.68;44.87;72154.84;10574587;28;20222;-75
2023/07/02 13:26:01;;;;;;;4.78;1.88;;;;;;;-145.68;45.05;72190.81;10574337;28;20277;-74
2023/07/02 13:31:01;;;;;;;2.35;1.85;;;;;;;-145.68;45.30;72208.78;10574151;28;20188;-75
2023/07/02 13:36:02;;;;;;;5.75;2.33;;;;;;;-145.68;45.80;72168.81;10573864;28;20186;-75
2023/07/02 13:41:02;;;;;;;4.53;2.58;;;;;;;-145.68;44.21;72122.88;10573574;28;20229;-75
2023/07/02 13:46:03;;;;;;;3.08;1.58;;;;;;;-145.68;40.60;71805.19;10573762;28;20251;-75
2023/07/02 13:51:03;;;;;;;3.17;1.88;;;;;;;-145.68;38.00;71629.38;10573425;28;20434;-75
2023/07/02 13:56:03;;;;;;;6.72;2.03;;;;;;;-145.68;39.23;71845.13;10573664;28;20186;-75
2023/07/02 14:01:04;;;;;;;5.82;1.80;;;;;;;-145.68;39.03;71837.16;10572601;28;20225;-75
2023/07/02 14:06:04;;;;;;;3.35;1.60;;;;;;;-145.68;41.69;71985.00;10573109;28;20200;-75
2023/07/02 14:11:04;;;;;;;5.35;2.30;;;;;;;-145.68;42.10;72056.94;10572645;28;20214;-75
2023/07/02 14:16:05;;;;;;;5.00;2.10;;;;;;;-145.68;44.90;72212.78;10571766;28;20208;-75
2023/07/02 14:21:06;;;;;;;6.45;2.65;;;;;;;-145.68;43.51;72158.84;10572164;28;20232;-75
2023/07/02 14:26:07;;;;;;;3.40;2.60;;;;;;;-145.68;40.47;71821.16;10572411;28;20190;-75
2023/07/02 14:31:08;;;;;;;4.75;2.58;;;;;;;-145.68;42.22;72026.97;10554566;28;20233;-75
2023/07/02 14:36:08;;;;;;;7.43;2.17;;;;;;;-145.68;41.51;71945.03;10572284;28;20193;-75
2023/07/02 14:41:09;;;;;;;5.30;2.33;;;;;;;-145.68;41.58;71909.06;10554027;28;20221;-75
2023/07/02 14:46:09;;;;;;;5.78;2.33;;;;;;;-145.68;42.56;71995.00;10572697;28;20190;-75
2023/07/02 14:51:09;;;;;;;6.93;2.05;;;;;;;-145.68;43.09;72030.94;10571262;28;20259;-75
2023/07/02 14:56:10;;;;;;;4.35;2.50;;;;;;;-145.68;42.80;72068.91;10572236;28;20190;-75
2023/07/02 15:01:11;;;;;;;7.75;2.80;;;;;;;-145.68;43.20;72124.88;10571438;28;20214;-75
2023/07/02 15:06:14;;;;;;;5.35;2.80;;;;;;;-145.68;42.10;71963.03;10571884;28;20198;-75
2023/07/02 15:11:15;;;;;;;6.10;2.92;;;;;;;-145.68;39.80;71817.16;10553560;28;20303;-74
2023/07/02 15:16:16;;;;;;;5.38;3.10;;;;;;;-145.68;39.19;71845.13;10571594;28;20178;-74
2023/07/02 15:21:18;;;;;;;7.93;3.15;;;;;;;-145.68;40.17;71931.06;10570998;28;20255;-75
2023/07/02 15:26:18;;;;;;;4.90;3.55;;;;;;;-145.68;36.53;71719.25;10571499;28;20190;-75
2023/07/02 15:31:18;;;;;;;5.72;3.55;;;;;;;-145.68;37.12;71817.16;10571337;28;20591;-75
2023/07/02 15:36:21;;;;;;;5.70;3.30;;;;;;;-145.68;35.94;71569.44;10578390;28;20201;-75
2023/07/02 15:41:21;;;;;;;5.20;3.60;;;;;;;-145.68;36.25;71583.41;10578887;28;20287;-75
2023/07/02 15:46:22;;;;;;;5.45;3.90;;;;;;;-145.68;37.40;71813.16;10578797;28;20248;-75
2023/07/02 15:51:24;;;;;;;6.55;4.05;;;;;;;-145.68;37.39;71851.13;10580007;28;20650;-75
2023/07/02 15:56:26;;;;;;;5.45;3.78;;;;;;;-145.68;37.89;71781.19;10582226;28;20657;-75
2023/07/02 16:01:27;;;;;;;11.48;4.35;;;;;;;-145.68;35.84;71575.41;10546875;28;20213;-75
2023/07/02 16:06:33;;;;;;;4.43;3.40;;;;;;;-145.68;36.24;71705.28;10581141;28;20194;-75
2023/07/02 16:11:35;;;;;;;8.52;4.43;;;;;;;-145.68;37.12;71741.25;10581444;28;20182;-75
2023/07/02 16:16:40;;;;;;;6.60;4.45;;;;;;;-145.68;38.12;71837.16;10580791;28;20231;-75
2023/07/02 16:21:41;;;;;;;8.52;4.82;;;;;;;-145.68;38.52;71857.13;10579953;28;20225;-75
2023/07/02 16:26:41;;;;;;;7.70;4.38;;;;;;;-145.68;38.55;71873.09;10580937;28;20549;-75
2023/07/02 16:31:55;;;;;;;8.38;5.60;;;;;;;-145.68;40.96;72106.88;10579681;28;20240;-75
2023/07/02 16:36:56;;;;;;;9.73;5.22;;;;;;;-145.68;40.15;72000.97;10580417;28;20190;-74
2023/07/02 16:41:57;;;;;;;9.95;5.45;;;;;;;-145.68;41.04;72004.97;10579786;28;20217;-75
2023/07/02 16:46:57;;;;;;;8.25;4.97;;;;;;;-145.68;41.30;72014.97;10579217;28;20186;-74
2023/07/02 16:51:58;;;;;;;10.30;5.50;;;;;;;-145.68;41.85;72068.91;10579336;28;20185;-74
2023/07/02 16:57:00;;;;;;;10.13;5.45;;;;;;;-145.68;42.96;72084.91;10579790;28;20186;-74
2023/07/02 17:02:00;;;;;;;11.43;6.22;;;;;;;-145.68;42.05;72050.94;10578602;28;20222;-75
2023/07/02 17:07:00;;;;;;;8.65;6.00;;;;;;;-145.68;41.01;72032.94;10579061;28;20264;-75
2023/07/02 17:12:03;;;;;;;8.52;6.00;;;;;;;-145.68;41.98;72042.94;10578760;28;20227;-75
2023/07/02 17:17:15;;;;;;;10.07;6.07;;;;;;;-145.68;41.95;72034.94;10578529;28;20186;-75
2023/07/02 17:22:18;;;;;;;9.18;5.75;;;;;;;-145.68;42.55;72116.88;10578598;28;20279;-75
2023/07/02 17:27:24;;;;;;;10.98;6.32;;;;;;;-145.68;43.28;72222.78;10578260;28;20235;-75
2023/07/02 17:32:25;;;;;;;13.65;6.13;;;;;;;-145.68;44.55;72198.78;10559462;28;20257;-75
2023/07/02 17:37:25;;;;;;;13.75;6.95;;;;;;;-145.68;43.75;72292.72;10577821;28;20271;-75
2023/07/02 17:42:26;;;;;;;10.55;6.20;;;;;;;-145.68;43.79;72190.81;10577333;28;20217;-75
2023/07/02 17:47:26;;;;;;;9.35;6.07;;;;;;;-145.68;43.48;72144.84;10577326;28;20201;-75
2023/07/02 17:52:27;;;;;;;8.85;6.40;;;;;;;-145.68;43.23;72238.75;10576819;28;20743;-74
2023/07/02 17:57:27;;;;;;;10.98;6.22;;;;;;;-145.68;43.66;72206.78;10576000;28;20662;-74
2023/07/02 18:02:28;;;;;;;9.45;6.60;;;;;;;-145.68;44.29;72248.75;10575715;28;20636;-75
2023/07/02 18:07:28;;;;;;;12.68;6.78;;;;;;;-145.68;45.44;72326.69;10576257;28;20276;-75
2023/07/02 18:12:28;;;;;;;12.90;6.70;;;;;;;-145.68;45.88;72378.63;10575839;28;20272;-74
2023/07/02 18:17:29;;;;;;;12.32;7.10;;;;;;;-145.68;46.78;72380.63;10575602;28;20238;-74
2023/07/02 18:22:29;;;;;;;11.00;6.88;;;;;;;-145.68;47.19;72410.59;10575481;28;20217;-74
2023/07/02 18:27:29;;;;;;;20.17;12.55;;;;;;;-145.68;47.82;72426.59;10575446;28;20247;-75
2023/07/02 18:32:30;;;;;;;12.90;7.75;;;;;;;-145.68;48.60;72500.53;10575171;28;20995;-74
2023/07/02 18:37:30;;;;;;;16.25;7.30;;;;;;;-145.68;48.74;72524.50;10575225;28;20764;-74
2023/07/02 18:42:30;;;;;;;14.30;7.88;;;;;;;-145.68;48.60;72482.53;10574496;28;20205;-74
2023/07/02 18:47:31;;;;;;;11.95;7.63;;;;;;;-145.68;49.25;72512.50;10575285;28;20336;-75
2023/07/02 18:52:31;;;;;;;16.33;8.20;;;;;;;-145.68;49.60;72500.53;10574937;28;20185;-74
2023/07/02 18:57:31;;;;;;;11.15;7.38;;;;;;;-145.68;51.49;72554.47;10574839;28;20192;-75
2023/07/02 19:02:32;;;;;;;17.55;13.25;;;;;;;-145.68;52.88;72602.44;10574793;28;20730;-74
2023/07/02 19:07:33;;;;;;;73.63;51.28;;;;;;;-145.68;54.13;72628.41;10576291;28;20830;-74
2023/07/02 19:12:34;;;;;;;13.57;8.32;;;;;;;-145.68;56.65;72698.34;10582552;28;20182;-74
2023/07/02 19:17:35;;;;;;;17.73;10.40;;;;;;;-145.68;58.71;72744.31;10577529;28;20190;-74
2023/07/02 19:22:35;;;;;;;16.20;9.23;;;;;;;-145.68;59.55;72712.34;10540078;28;20237;-75
2023/07/02 19:27:37;;;;;;;9.30;7.13;;;;;;;-145.68;59.59;72732.34;10540239;28;20240;-74
2023/07/02 19:32:38;;;;;;;15.05;9.20;;;;;;;-145.68;60.78;72752.31;10539476;28;20328;-74
2023/07/02 19:37:38;;;;;;;14.50;8.27;;;;;;;-145.68;60.28;72746.31;10539791;28;20558;-74
2023/07/02 19:42:38;;;;;;;15.70;8.75;;;;;;;-145.68;60.87;72784.28;10520599;28;20321;-75
2023/07/02 19:47:39;;;;;;;14.05;8.15;;;;;;;-145.68;62.16;72824.25;10539417;28;20199;-74
2023/07/02 19:52:40;;;;;;;18.15;8.00;;;;;;;-145.68;62.88;72826.25;10539299;28;20212;-75
2023/07/02 19:57:40;;;;;;;12.52;7.85;;;;;;;-145.68;63.98;72838.25;10539018;28;20201;-74
2023/07/02 20:02:41;;;;;;;16.55;9.00;;;;;;;-145.68;65.80;72856.22;10538740;28;20214;-74
2023/07/02 20:07:41;;;;;;;16.85;7.80;;;;;;;-145.68;66.41;72880.22;10538787;28;20190;-75
2023/07/02 20:12:41;;;;;;;14.52;8.57;;;;;;;-145.68;65.86;72870.22;10538192;28;20269;-75
2023/07/02 20:17:42;;;;;;;15.40;8.52;;;;;;;-145.68;67.26;72880.22;10538255;28;20198;-74
2023/07/02 20:22:43;;;;;;;15.25;8.68;;;;;;;-145.68;66.87;72880.22;10536889;28;20225;-74
2023/07/02 20:27:44;;;;;;;14.52;8.63;;;;;;;-145.68;66.87;72886.22;10537821;28;20635;-74
2023/07/02 20:32:44;;;;;;;18.45;8.07;;;;;;;-145.68;66.83;72892.22;10537346;28;20309;-74
2023/07/02 20:37:49;;;;;;;13.50;8.50;;;;;;;-145.68;66.52;72894.22;10575742;28;20231;-75
2023/07/02 20:42:52;;;;;;;15.00;8.35;;;;;;;-145.68;65.89;72900.19;10579348;28;20643;-74
2023/07/02 20:47:52;;;;;;;15.10;8.32;;;;;;;-145.68;66.58;72892.22;10579042;28;20289;-75
2023/07/02 20:52:53;;;;;;;15.57;7.90;;;;;;;-145.68;66.57;72898.19;10578860;28;20265;-75
2023/07/02 20:57:53;;;;;;;12.13;8.10;;;;;;;-145.68;66.41;72898.19;10578980;28;20185;-75
2023/07/02 21:02:53;;;;;;;16.75;8.20;;;;;;;-145.68;67.09;72912.19;10578321;28;20221;-75
2023/07/02 21:07:55;;;;;;;14.85;8.73;;;;;;;-145.68;67.04;72924.19;10578342;28;20194;-75
2023/07/02 21:12:55;;;;;;;14.35;8.60;;;;;;;-145.68;67.53;72928.19;10578194;28;20185;-75
2023/07/02 21:17:55;;;;;;;14.57;8.18;;;;;;;-145.68;67.00;72936.19;10578125;28;20200;-75
2023/07/02 21:22:56;;;;;;;16.85;8.57;;;;;;;-145.68;67.11;72942.16;10577515;28;20705;-75
2023/07/02 21:27:56;;;;;;;14.60;9.07;;;;;;;-145.68;67.76;72946.16;10577707;28;20544;-75
2023/07/02 21:32:57;;;;;;;14.73;8.52;;;;;;;-145.68;68.71;72968.16;10576886;28;20252;-74
2023/07/02 21:37:57;;;;;;;19.65;8.48;;;;;;;-145.68;69.99;72970.16;10577528;28;20209;-75
2023/07/02 21:42:57;;;;;;;13.60;8.30;;;;;;;-145.68;71.13;72986.13;10577519;28;20217;-75
2023/07/02 21:47:58;;;;;;;14.15;8.25;;;;;;;-145.68;73.03;73014.13;10559387;28;20197;-75
2023/07/02 21:52:58;;;;;;;16.25;8.60;;;;;;;-145.68;73.23;73018.13;10577246;28;20193;-74
2023/07/02 21:57:59;;;;;;;19.35;9.25;;;;;;;-145.68;73.55;73032.09;10577345;28;20281;-75
2023/07/02 22:02:59;;;;;;;14.88;8.98;;;;;;;-145.68;72.30;73006.13;10576730;28;20213;-75
2023/07/02 22:08:01;;;;;;;17.35;9.65;;;;;;;-145.68;67.64;72976.16;10542237;28;20331;-75
2023/07/02 22:13:03;;;;;;;16.55;9.45;;;;;;;-145.68;65.64;72968.16;10576472;28;20194;-75
2023/07/02 22:18:04;;;;;;;18.00;9.15;;;;;;;-145.68;63.87;72962.16;10577124;28;20642;-75
2023/07/02 22:23:04;;;;;;;18.98;10.05;;;;;;;-145.68;63.25;72964.16;10575474;28;20214;-75
2023/07/02 22:28:05;;;;;;;18.27;9.55;;;;;;;-145.68;63.13;72946.16;10576600;28;20189;-74
2023/07/02 22:33:05;;;;;;;21.23;9.63;;;;;;;-145.68;64.33;72964.16;10576025;28;20225;-76
2023/07/02 22:38:05;;;;;;;20.77;9.82;;;;;;;-145.68;65.07;72960.16;10576192;28;20351;-75